sensor_id;sensor_type;location;lat;lon;timestamp;P1;durP1;ratioP1;P2;durP2;ratioP2
11171;SDS011;5642;50.830;12.082;2023-06-24T00:02:22;2.90;;;2.70;;
11171;SDS011;5642;50.830;12.082;2023-06-24T00:05:09;2.90;;;2.70;;
11171;SDS011;5642;50.830;12.082;2023-06-24T00:07:55;2.95;;;2.75;;
11171;SDS011;5642;50.830;12.082;2023-06-24T00:10:43;3.33;;;3.10;;
11171;SDS011;5642;50.830;12.082;2023-06-24T00:13:29;3.20;;;2.90;;
11171;SDS011;5642;50.830;12.082;2023-06-24T00:16:15;4.18;;;3.40;;
11171;SDS011;5642;50.830;12.082;2023-06-24T00:19:01;3.58;;;3.28;;
11171;SDS011;5642;50.830;12.082;2023-06-24T00:21:47;3.13;;;2.83;;
11171;SDS011;5642;50.830;12.082;2023-06-24T00:24:35;3.78;;;3.47;;
11171;SDS011;5642;50.830;12.082;2023-06-24T00:27:21;3.78;;;3.30;;
11171;SDS011;5642;50.830;12.082;2023-06-24T00:30:07;4.00;;;3.70;;
11171;SDS011;5642;50.830;12.082;2023-06-24T00:32:54;3.10;;;2.90;;
11171;SDS011;5642;50.830;12.082;2023-06-24T00:35:40;3.10;;;2.90;;
11171;SDS011;5642;50.830;12.082;2023-06-24T00:38:27;4.35;;;2.97;;
11171;SDS011;5642;50.830;12.082;2023-06-24T00:41:17;3.97;;;3.03;;
11171;SDS011;5642;50.830;12.082;2023-06-24T00:44:04;3.38;;;2.97;;
11171;SDS011;5642;50.830;12.082;2023-06-24T00:46:50;3.42;;;2.97;;
11171;SDS011;5642;50.830;12.082;2023-06-24T00:49:36;2.90;;;2.63;;
11171;SDS011;5642;50.830;12.082;2023-06-24T00:52:22;3.78;;;2.75;;
11171;SDS011;5642;50.830;12.082;2023-06-24T00:55:12;2.60;;;2.40;;
11171;SDS011;5642;50.830;12.082;2023-06-24T00:58:01;2.50;;;2.30;;
11171;SDS011;5642;50.830;12.082;2023-06-24T01:00:47;3.55;;;2.60;;
11171;SDS011;5642;50.830;12.082;2023-06-24T01:03:42;2.38;;;2.25;;
11171;SDS011;5642;50.830;12.082;2023-06-24T01:06:28;2.55;;;2.20;;
11171;SDS011;5642;50.830;12.082;2023-06-24T01:09:14;2.50;;;2.30;;
11171;SDS011;5642;50.830;12.082;2023-06-24T01:12:00;2.80;;;2.60;;
11171;SDS011;5642;50.830;12.082;2023-06-24T01:14:47;2.45;;;2.28;;
11171;SDS011;5642;50.830;12.082;2023-06-24T01:17:37;2.40;;;2.22;;
11171;SDS011;5642;50.830;12.082;2023-06-24T01:26:59;2.20;;;2.00;;
11171;SDS011;5642;50.830;12.082;2023-06-24T01:30:05;2.70;;;2.50;;
11171;SDS011;5642;50.830;12.082;2023-06-24T01:33:26;3.40;;;1.92;;
11171;SDS011;5642;50.830;12.082;2023-06-24T01:36:36;2.70;;;2.20;;
11171;SDS011;5642;50.830;12.082;2023-06-24T01:39:24;3.30;;;2.35;;
11171;SDS011;5642;50.830;12.082;2023-06-24T01:42:13;4.45;;;2.42;;
11171;SDS011;5642;50.830;12.082;2023-06-24T01:45:01;2.80;;;2.60;;
11171;SDS011;5642;50.830;12.082;2023-06-24T01:47:47;2.60;;;2.40;;
11171;SDS011;5642;50.830;12.082;2023-06-24T01:50:37;3.90;;;2.53;;
11171;SDS011;5642;50.830;12.082;2023-06-24T01:53:28;3.80;;;2.60;;
11171;SDS011;5642;50.830;12.082;2023-06-24T01:56:18;3.45;;;3.15;;
11171;SDS011;5642;50.830;12.082;2023-06-24T01:59:07;3.63;;;3.33;;
11171;SDS011;5642;50.830;12.082;2023-06-24T02:01:55;3.42;;;3.13;;
11171;SDS011;5642;50.830;12.082;2023-06-24T02:04:42;3.80;;;3.50;;
11171;SDS011;5642;50.830;12.082;2023-06-24T02:07:29;3.42;;;3.10;;
11171;SDS011;5642;50.830;12.082;2023-06-24T02:10:17;3.38;;;3.08;;
11171;SDS011;5642;50.830;12.082;2023-06-24T02:13:04;4.20;;;2.75;;
11171;SDS011;5642;50.830;12.082;2023-06-24T02:15:52;3.50;;;2.60;;
11171;SDS011;5642;50.830;12.082;2023-06-24T02:18:39;3.72;;;3.08;;
11171;SDS011;5642;50.830;12.082;2023-06-24T02:21:28;3.83;;;3.53;;
11171;SDS011;5642;50.830;12.082;2023-06-24T02:24:15;3.65;;;3.35;;
11171;SDS011;5642;50.830;12.082;2023-06-24T02:27:01;4.00;;;3.30;;
11171;SDS011;5642;50.830;12.082;2023-06-24T02:29:47;4.85;;;3.13;;
11171;SDS011;5642;50.830;12.082;2023-06-24T02:32:33;3.95;;;3.65;;
11171;SDS011;5642;50.830;12.082;2023-06-24T02:35:21;4.50;;;4.10;;
11171;SDS011;5642;50.830;12.082;2023-06-24T02:38:07;4.20;;;3.80;;
11171;SDS011;5642;50.830;12.082;2023-06-24T02:40:53;4.43;;;3.75;;
11171;SDS011;5642;50.830;12.082;2023-06-24T02:43:39;3.97;;;3.60;;
11171;SDS011;5642;50.830;12.082;2023-06-24T02:46:25;3.22;;;3.03;;
11171;SDS011;5642;50.830;12.082;2023-06-24T02:49:15;3.40;;;3.10;;
11171;SDS011;5642;50.830;12.082;2023-06-24T02:52:03;3.50;;;3.20;;
11171;SDS011;5642;50.830;12.082;2023-06-24T02:54:49;3.22;;;2.58;;
11171;SDS011;5642;50.830;12.082;2023-06-24T02:57:35;3.00;;;2.80;;
11171;SDS011;5642;50.830;12.082;2023-06-24T03:00:21;3.10;;;2.90;;
11171;SDS011;5642;50.830;12.082;2023-06-24T03:03:08;3.47;;;3.17;;
11171;SDS011;5642;50.830;12.082;2023-06-24T03:05:54;3.00;;;2.80;;
11171;SDS011;5642;50.830;12.082;2023-06-24T03:08:42;2.90;;;2.70;;
11171;SDS011;5642;50.830;12.082;2023-06-24T03:11:28;2.90;;;2.70;;
11171;SDS011;5642;50.830;12.082;2023-06-24T03:14:14;2.90;;;2.70;;
11171;SDS011;5642;50.830;12.082;2023-06-24T03:17:00;2.90;;;2.70;;
11171;SDS011;5642;50.830;12.082;2023-06-24T03:19:46;2.75;;;2.55;;
11171;SDS011;5642;50.830;12.082;2023-06-24T03:22:31;3.17;;;2.30;;
11171;SDS011;5642;50.830;12.082;2023-06-24T03:25:18;2.50;;;2.30;;
11171;SDS011;5642;50.830;12.082;2023-06-24T03:28:04;3.63;;;2.65;;
11171;SDS011;5642;50.830;12.082;2023-06-24T03:34:39;2.78;;;2.58;;
11171;SDS011;5642;50.830;12.082;2023-06-24T03:37:26;3.25;;;2.90;;
11171;SDS011;5642;50.830;12.082;2023-06-24T03:40:12;2.53;;;2.38;;
11171;SDS011;5642;50.830;12.082;2023-06-24T03:42:58;3.15;;;2.95;;
11171;SDS011;5642;50.830;12.082;2023-06-24T03:45:44;3.55;;;3.25;;
11171;SDS011;5642;50.830;12.082;2023-06-24T03:48:30;3.47;;;3.17;;
11171;SDS011;5642;50.830;12.082;2023-06-24T03:51:16;3.00;;;2.80;;
11171;SDS011;5642;50.830;12.082;2023-06-24T03:57:48;2.88;;;2.67;;
11171;SDS011;5642;50.830;12.082;2023-06-24T04:00:35;3.20;;;2.97;;
11171;SDS011;5642;50.830;12.082;2023-06-24T04:03:25;3.03;;;2.83;;
11171;SDS011;5642;50.830;12.082;2023-06-24T04:06:11;3.38;;;2.80;;
11171;SDS011;5642;50.830;12.082;2023-06-24T04:08:57;2.65;;;2.45;;
11171;SDS011;5642;50.830;12.082;2023-06-24T04:11:44;2.88;;;2.55;;
11171;SDS011;5642;50.830;12.082;2023-06-24T04:14:31;2.78;;;2.58;;
11171;SDS011;5642;50.830;12.082;2023-06-24T04:17:17;3.30;;;3.00;;
11171;SDS011;5642;50.830;12.082;2023-06-24T04:20:03;2.70;;;2.50;;
11171;SDS011;5642;50.830;12.082;2023-06-24T04:22:55;2.90;;;2.70;;
11171;SDS011;5642;50.830;12.082;2023-06-24T04:25:41;3.95;;;2.90;;
11171;SDS011;5642;50.830;12.082;2023-06-24T04:28:27;3.72;;;2.60;;
11171;SDS011;5642;50.830;12.082;2023-06-24T04:31:13;2.80;;;2.60;;
11171;SDS011;5642;50.830;12.082;2023-06-24T04:33:59;2.47;;;2.30;;
11171;SDS011;5642;50.830;12.082;2023-06-24T04:36:45;2.38;;;2.28;;
11171;SDS011;5642;50.830;12.082;2023-06-24T04:39:31;2.72;;;2.42;;
11171;SDS011;5642;50.830;12.082;2023-06-24T04:42:17;2.63;;;2.42;;
11171;SDS011;5642;50.830;12.082;2023-06-24T04:45:03;2.65;;;2.45;;
11171;SDS011;5642;50.830;12.082;2023-06-24T04:47:50;2.70;;;2.50;;
11171;SDS011;5642;50.830;12.082;2023-06-24T04:50:37;2.78;;;2.47;;
11171;SDS011;5642;50.830;12.082;2023-06-24T04:53:23;2.47;;;2.33;;
11171;SDS011;5642;50.830;12.082;2023-06-24T04:56:10;3.35;;;2.65;;
11171;SDS011;5642;50.830;12.082;2023-06-24T04:58:56;2.63;;;2.42;;
11171;SDS011;5642;50.830;12.082;2023-06-24T05:01:42;2.47;;;2.30;;
11171;SDS011;5642;50.830;12.082;2023-06-24T05:04:28;2.35;;;2.20;;
11171;SDS011;5642;50.830;12.082;2023-06-24T05:07:14;2.85;;;2.65;;
11171;SDS011;5642;50.830;12.082;2023-06-24T05:09:59;2.50;;;2.30;;
11171;SDS011;5642;50.830;12.082;2023-06-24T05:12:45;2.97;;;2.65;;
11171;SDS011;5642;50.830;12.082;2023-06-24T05:15:31;2.38;;;2.28;;
11171;SDS011;5642;50.830;12.082;2023-06-24T05:18:17;2.55;;;2.35;;
11171;SDS011;5642;50.830;12.082;2023-06-24T05:21:03;2.40;;;2.30;;
11171;SDS011;5642;50.830;12.082;2023-06-24T05:23:49;2.58;;;2.38;;
11171;SDS011;5642;50.830;12.082;2023-06-24T05:26:35;2.63;;;2.42;;
11171;SDS011;5642;50.830;12.082;2023-06-24T05:29:23;2.30;;;2.10;;
11171;SDS011;5642;50.830;12.082;2023-06-24T05:32:09;2.72;;;2.53;;
11171;SDS011;5642;50.830;12.082;2023-06-24T05:34:55;2.70;;;2.50;;
11171;SDS011;5642;50.830;12.082;2023-06-24T05:37:41;2.78;;;2.50;;
11171;SDS011;5642;50.830;12.082;2023-06-24T05:40:27;3.00;;;2.50;;
11171;SDS011;5642;50.830;12.082;2023-06-24T05:43:13;2.95;;;2.75;;
11171;SDS011;5642;50.830;12.082;2023-06-24T05:45:59;2.80;;;2.60;;
11171;SDS011;5642;50.830;12.082;2023-06-24T05:48:48;3.45;;;2.60;;
11171;SDS011;5642;50.830;12.082;2023-06-24T05:51:34;2.95;;;2.58;;
11171;SDS011;5642;50.830;12.082;2023-06-24T05:54:22;3.20;;;2.63;;
11171;SDS011;5642;50.830;12.082;2023-06-24T05:57:09;2.55;;;2.42;;
11171;SDS011;5642;50.830;12.082;2023-06-24T05:59:56;2.60;;;2.40;;
11171;SDS011;5642;50.830;12.082;2023-06-24T06:02:41;2.80;;;2.60;;
11171;SDS011;5642;50.830;12.082;2023-06-24T06:05:27;2.80;;;2.60;;
11171;SDS011;5642;50.830;12.082;2023-06-24T06:08:13;3.10;;;2.80;;
11171;SDS011;5642;50.830;12.082;2023-06-24T06:10:59;2.67;;;2.47;;
11171;SDS011;5642;50.830;12.082;2023-06-24T06:13:47;3.35;;;2.58;;
11171;SDS011;5642;50.830;12.082;2023-06-24T06:16:33;2.50;;;2.38;;
11171;SDS011;5642;50.830;12.082;2023-06-24T06:19:19;2.40;;;2.20;;
11171;SDS011;5642;50.830;12.082;2023-06-24T06:22:05;2.20;;;2.00;;
11171;SDS011;5642;50.830;12.082;2023-06-24T06:24:51;2.33;;;2.22;;
11171;SDS011;5642;50.830;12.082;2023-06-24T06:27:37;2.50;;;2.30;;
11171;SDS011;5642;50.830;12.082;2023-06-24T06:30:23;2.40;;;2.20;;
11171;SDS011;5642;50.830;12.082;2023-06-24T06:33:09;2.83;;;2.10;;
11171;SDS011;5642;50.830;12.082;2023-06-24T06:35:54;2.13;;;2.03;;
11171;SDS011;5642;50.830;12.082;2023-06-24T06:38:40;2.53;;;2.33;;
11171;SDS011;5642;50.830;12.082;2023-06-24T06:41:26;2.47;;;2.30;;
11171;SDS011;5642;50.830;12.082;2023-06-24T06:44:12;2.63;;;2.42;;
11171;SDS011;5642;50.830;12.082;2023-06-24T06:46:58;2.08;;;1.98;;
11171;SDS011;5642;50.830;12.082;2023-06-24T06:49:44;1.90;;;1.80;;
11171;SDS011;5642;50.830;12.082;2023-06-24T06:52:30;2.13;;;2.03;;
11171;SDS011;5642;50.830;12.082;2023-06-24T06:55:16;2.38;;;1.80;;
11171;SDS011;5642;50.830;12.082;2023-06-24T06:58:01;2.00;;;1.90;;
11171;SDS011;5642;50.830;12.082;2023-06-24T07:00:48;2.28;;;2.17;;
11171;SDS011;5642;50.830;12.082;2023-06-24T07:03:33;2.33;;;2.17;;
11171;SDS011;5642;50.830;12.082;2023-06-24T07:06:19;2.92;;;2.55;;
11171;SDS011;5642;50.830;12.082;2023-06-24T07:09:05;2.90;;;2.70;;
11171;SDS011;5642;50.830;12.082;2023-06-24T07:11:53;2.92;;;2.72;;
11171;SDS011;5642;50.830;12.082;2023-06-24T07:14:39;3.88;;;3.15;;
11171;SDS011;5642;50.830;12.082;2023-06-24T07:17:24;2.47;;;2.38;;
11171;SDS011;5642;50.830;12.082;2023-06-24T07:20:10;2.70;;;2.50;;
11171;SDS011;5642;50.830;12.082;2023-06-24T07:22:56;2.30;;;2.20;;
11171;SDS011;5642;50.830;12.082;2023-06-24T07:25:42;2.42;;;2.13;;
11171;SDS011;5642;50.830;12.082;2023-06-24T07:28:28;2.42;;;2.33;;
11171;SDS011;5642;50.830;12.082;2023-06-24T07:31:14;2.38;;;2.22;;
11171;SDS011;5642;50.830;12.082;2023-06-24T07:34:00;2.00;;;1.90;;
11171;SDS011;5642;50.830;12.082;2023-06-24T07:36:46;2.45;;;2.25;;
11171;SDS011;5642;50.830;12.082;2023-06-24T07:39:32;2.38;;;2.17;;
11171;SDS011;5642;50.830;12.082;2023-06-24T07:42:17;2.08;;;1.98;;
11171;SDS011;5642;50.830;12.082;2023-06-24T07:45:06;1.90;;;1.80;;
11171;SDS011;5642;50.830;12.082;2023-06-24T07:47:52;1.67;;;1.58;;
11171;SDS011;5642;50.830;12.082;2023-06-24T07:50:38;1.90;;;1.80;;
11171;SDS011;5642;50.830;12.082;2023-06-24T07:53:25;1.70;;;1.60;;
11171;SDS011;5642;50.830;12.082;2023-06-24T07:56:10;1.58;;;1.48;;
11171;SDS011;5642;50.830;12.082;2023-06-24T07:58:56;1.60;;;1.50;;
11171;SDS011;5642;50.830;12.082;2023-06-24T08:01:42;1.90;;;1.80;;
11171;SDS011;5642;50.830;12.082;2023-06-24T08:04:28;1.67;;;1.58;;
11171;SDS011;5642;50.830;12.082;2023-06-24T08:07:14;2.22;;;1.45;;
11171;SDS011;5642;50.830;12.082;2023-06-24T08:10:01;1.40;;;1.30;;
11171;SDS011;5642;50.830;12.082;2023-06-24T08:12:47;1.58;;;1.48;;
11171;SDS011;5642;50.830;12.082;2023-06-24T08:15:33;1.27;;;1.27;;
11171;SDS011;5642;50.830;12.082;2023-06-24T08:18:19;1.23;;;1.23;;
11171;SDS011;5642;50.830;12.082;2023-06-24T08:21:05;1.40;;;1.30;;
11171;SDS011;5642;50.830;12.082;2023-06-24T08:23:50;1.30;;;1.30;;
11171;SDS011;5642;50.830;12.082;2023-06-24T08:26:37;2.95;;;1.42;;
11171;SDS011;5642;50.830;12.082;2023-06-24T08:29:23;1.50;;;1.20;;
11171;SDS011;5642;50.830;12.082;2023-06-24T08:32:09;1.50;;;1.40;;
11171;SDS011;5642;50.830;12.082;2023-06-24T08:34:55;1.40;;;1.30;;
11171;SDS011;5642;50.830;12.082;2023-06-24T08:37:40;1.55;;;1.45;;
11171;SDS011;5642;50.830;12.082;2023-06-24T08:40:27;1.30;;;1.20;;
11171;SDS011;5642;50.830;12.082;2023-06-24T08:43:13;1.38;;;1.10;;
11171;SDS011;5642;50.830;12.082;2023-06-24T08:45:59;1.30;;;1.30;;
11171;SDS011;5642;50.830;12.082;2023-06-24T08:48:45;1.00;;;1.00;;
11171;SDS011;5642;50.830;12.082;2023-06-24T08:51:33;1.83;;;1.10;;
11171;SDS011;5642;50.830;12.082;2023-06-24T08:54:25;1.38;;;1.27;;
11171;SDS011;5642;50.830;12.082;2023-06-24T08:57:11;1.17;;;1.10;;
11171;SDS011;5642;50.830;12.082;2023-06-24T09:00:00;1.10;;;1.10;;
11171;SDS011;5642;50.830;12.082;2023-06-24T09:02:46;1.15;;;1.15;;
11171;SDS011;5642;50.830;12.082;2023-06-24T09:05:32;0.93;;;0.93;;
11171;SDS011;5642;50.830;12.082;2023-06-24T09:08:18;1.08;;;1.08;;
11171;SDS011;5642;50.830;12.082;2023-06-24T09:11:04;1.23;;;1.23;;
11171;SDS011;5642;50.830;12.082;2023-06-24T09:13:59;1.40;;;1.30;;
11171;SDS011;5642;50.830;12.082;2023-06-24T09:16:58;1.20;;;1.20;;
11171;SDS011;5642;50.830;12.082;2023-06-24T09:19:48;1.10;;;1.10;;
11171;SDS011;5642;50.830;12.082;2023-06-24T09:22:34;1.02;;;1.02;;
11171;SDS011;5642;50.830;12.082;2023-06-24T09:25:20;1.20;;;1.10;;
11171;SDS011;5642;50.830;12.082;2023-06-24T09:28:06;1.25;;;1.10;;
11171;SDS011;5642;50.830;12.082;2023-06-24T09:31:07;1.10;;;1.10;;
11171;SDS011;5642;50.830;12.082;2023-06-24T09:33:56;1.08;;;1.08;;
11171;SDS011;5642;50.830;12.082;2023-06-24T09:36:44;1.30;;;1.20;;
11171;SDS011;5642;50.830;12.082;2023-06-24T09:39:37;1.15;;;1.15;;
11171;SDS011;5642;50.830;12.082;2023-06-24T09:42:25;1.10;;;1.10;;
11171;SDS011;5642;50.830;12.082;2023-06-24T09:45:11;1.20;;;1.20;;
11171;SDS011;5642;50.830;12.082;2023-06-24T09:47:57;1.23;;;1.13;;
11171;SDS011;5642;50.830;12.082;2023-06-24T09:50:43;1.30;;;1.30;;
11171;SDS011;5642;50.830;12.082;2023-06-24T09:53:30;1.23;;;1.23;;
11171;SDS011;5642;50.830;12.082;2023-06-24T09:56:17;1.20;;;1.20;;
11171;SDS011;5642;50.830;12.082;2023-06-24T09:59:04;1.40;;;1.40;;
11171;SDS011;5642;50.830;12.082;2023-06-24T10:01:52;1.40;;;1.30;;
11171;SDS011;5642;50.830;12.082;2023-06-24T10:04:40;1.45;;;1.23;;
11171;SDS011;5642;50.830;12.082;2023-06-24T10:07:26;1.88;;;1.05;;
11171;SDS011;5642;50.830;12.082;2023-06-24T10:10:13;1.20;;;1.20;;
11171;SDS011;5642;50.830;12.082;2023-06-24T10:13:00;1.33;;;1.33;;
11171;SDS011;5642;50.830;12.082;2023-06-24T10:15:46;1.20;;;1.20;;
11171;SDS011;5642;50.830;12.082;2023-06-24T10:18:32;1.27;;;1.27;;
11171;SDS011;5642;50.830;12.082;2023-06-24T10:21:20;1.20;;;1.20;;
11171;SDS011;5642;50.830;12.082;2023-06-24T10:24:06;1.20;;;1.20;;
11171;SDS011;5642;50.830;12.082;2023-06-24T10:26:52;1.15;;;1.15;;
11171;SDS011;5642;50.830;12.082;2023-06-24T10:29:38;1.30;;;1.27;;
11171;SDS011;5642;50.830;12.082;2023-06-24T10:32:24;1.20;;;1.20;;
11171;SDS011;5642;50.830;12.082;2023-06-24T10:35:23;1.10;;;1.10;;
11171;SDS011;5642;50.830;12.082;2023-06-24T10:38:11;1.10;;;1.10;;
11171;SDS011;5642;50.830;12.082;2023-06-24T10:40:57;1.20;;;1.20;;
11171;SDS011;5642;50.830;12.082;2023-06-24T10:43:43;1.20;;;1.20;;
11171;SDS011;5642;50.830;12.082;2023-06-24T10:46:29;1.10;;;1.10;;
11171;SDS011;5642;50.830;12.082;2023-06-24T10:49:19;1.20;;;1.20;;
11171;SDS011;5642;50.830;12.082;2023-06-24T10:52:09;1.10;;;1.10;;
11171;SDS011;5642;50.830;12.082;2023-06-24T10:54:56;1.38;;;1.30;;
11171;SDS011;5642;50.830;12.082;2023-06-24T10:57:43;1.20;;;1.20;;
11171;SDS011;5642;50.830;12.082;2023-06-24T11:00:29;2.58;;;1.30;;
11171;SDS011;5642;50.830;12.082;2023-06-24T11:03:16;1.10;;;1.10;;
11171;SDS011;5642;50.830;12.082;2023-06-24T11:06:04;1.20;;;1.20;;
11171;SDS011;5642;50.830;12.082;2023-06-24T11:08:50;1.05;;;1.02;;
11171;SDS011;5642;50.830;12.082;2023-06-24T11:11:36;1.20;;;1.20;;
11171;SDS011;5642;50.830;12.082;2023-06-24T11:14:22;0.98;;;0.98;;
11171;SDS011;5642;50.830;12.082;2023-06-24T11:17:08;1.20;;;1.20;;
11171;SDS011;5642;50.830;12.082;2023-06-24T11:19:55;1.27;;;1.27;;
11171;SDS011;5642;50.830;12.082;2023-06-24T11:22:43;1.20;;;1.20;;
11171;SDS011;5642;50.830;12.082;2023-06-24T11:25:29;1.40;;;1.30;;
11171;SDS011;5642;50.830;12.082;2023-06-24T11:28:18;1.30;;;1.20;;
11171;SDS011;5642;50.830;12.082;2023-06-24T11:31:07;1.10;;;1.10;;
11171;SDS011;5642;50.830;12.082;2023-06-24T11:33:55;1.10;;;1.10;;
11171;SDS011;5642;50.830;12.082;2023-06-24T11:36:41;1.13;;;1.13;;
11171;SDS011;5642;50.830;12.082;2023-06-24T11:39:27;1.50;;;1.40;;
11171;SDS011;5642;50.830;12.082;2023-06-24T11:42:13;1.23;;;1.23;;
11171;SDS011;5642;50.830;12.082;2023-06-24T11:45:00;1.25;;;1.15;;
11171;SDS011;5642;50.830;12.082;2023-06-24T11:47:47;1.40;;;1.30;;
11171;SDS011;5642;50.830;12.082;2023-06-24T11:50:35;1.73;;;1.30;;
11171;SDS011;5642;50.830;12.082;2023-06-24T11:53:28;1.30;;;1.20;;
11171;SDS011;5642;50.830;12.082;2023-06-24T11:56:16;1.25;;;1.25;;
11171;SDS011;5642;50.830;12.082;2023-06-24T12:02:13;1.40;;;1.30;;
11171;SDS011;5642;50.830;12.082;2023-06-24T12:04:59;1.30;;;1.20;;
11171;SDS011;5642;50.830;12.082;2023-06-24T12:07:48;1.10;;;1.10;;
11171;SDS011;5642;50.830;12.082;2023-06-24T12:10:34;1.60;;;1.50;;
11171;SDS011;5642;50.830;12.082;2023-06-24T12:13:20;1.50;;;1.40;;
11171;SDS011;5642;50.830;12.082;2023-06-24T12:16:06;1.40;;;1.30;;
11171;SDS011;5642;50.830;12.082;2023-06-24T12:18:52;1.30;;;1.30;;
11171;SDS011;5642;50.830;12.082;2023-06-24T12:21:38;1.38;;;1.27;;
11171;SDS011;5642;50.830;12.082;2023-06-24T12:24:24;1.30;;;1.30;;
11171;SDS011;5642;50.830;12.082;2023-06-24T12:27:10;1.30;;;1.20;;
11171;SDS011;5642;50.830;12.082;2023-06-24T12:29:56;1.40;;;1.30;;
11171;SDS011;5642;50.830;12.082;2023-06-24T12:32:42;1.40;;;1.30;;
11171;SDS011;5642;50.830;12.082;2023-06-24T12:35:28;1.52;;;1.42;;
11171;SDS011;5642;50.830;12.082;2023-06-24T12:38:14;1.70;;;1.58;;
11171;SDS011;5642;50.830;12.082;2023-06-24T12:41:01;1.60;;;1.50;;
11171;SDS011;5642;50.830;12.082;2023-06-24T12:43:47;1.42;;;1.35;;
11171;SDS011;5642;50.830;12.082;2023-06-24T12:46:33;1.48;;;1.38;;
11171;SDS011;5642;50.830;12.082;2023-06-24T12:49:19;1.25;;;1.20;;
11171;SDS011;5642;50.830;12.082;2023-06-24T12:52:05;1.48;;;1.38;;
11171;SDS011;5642;50.830;12.082;2023-06-24T12:54:51;1.40;;;1.30;;
11171;SDS011;5642;50.830;12.082;2023-06-24T12:57:37;1.27;;;1.27;;
11171;SDS011;5642;50.830;12.082;2023-06-24T13:00:23;1.40;;;1.30;;
11171;SDS011;5642;50.830;12.082;2023-06-24T13:03:09;1.55;;;1.40;;
11171;SDS011;5642;50.830;12.082;2023-06-24T13:05:55;1.58;;;1.48;;
11171;SDS011;5642;50.830;12.082;2023-06-24T13:08:42;1.13;;;1.13;;
11171;SDS011;5642;50.830;12.082;2023-06-24T13:11:29;1.40;;;1.30;;
11171;SDS011;5642;50.830;12.082;2023-06-24T13:14:14;1.30;;;1.20;;
11171;SDS011;5642;50.830;12.082;2023-06-24T13:17:00;2.13;;;1.50;;
11171;SDS011;5642;50.830;12.082;2023-06-24T13:19:46;1.30;;;1.20;;
11171;SDS011;5642;50.830;12.082;2023-06-24T13:22:32;1.30;;;1.20;;
11171;SDS011;5642;50.830;12.082;2023-06-24T13:25:18;1.45;;;1.35;;
11171;SDS011;5642;50.830;12.082;2023-06-24T13:28:04;1.42;;;1.33;;
11171;SDS011;5642;50.830;12.082;2023-06-24T13:30:51;1.45;;;1.35;;
11171;SDS011;5642;50.830;12.082;2023-06-24T13:33:39;1.38;;;1.27;;
11171;SDS011;5642;50.830;12.082;2023-06-24T13:36:30;1.48;;;1.38;;
11171;SDS011;5642;50.830;12.082;2023-06-24T13:39:16;1.50;;;1.40;;
11171;SDS011;5642;50.830;12.082;2023-06-24T13:42:02;1.15;;;1.10;;
11171;SDS011;5642;50.830;12.082;2023-06-24T13:44:48;1.60;;;1.50;;
11171;SDS011;5642;50.830;12.082;2023-06-24T13:47:34;1.33;;;1.23;;
11171;SDS011;5642;50.830;12.082;2023-06-24T13:50:20;1.25;;;1.15;;
11171;SDS011;5642;50.830;12.082;2023-06-24T13:53:06;1.63;;;1.52;;
11171;SDS011;5642;50.830;12.082;2023-06-24T13:55:52;1.38;;;1.30;;
11171;SDS011;5642;50.830;12.082;2023-06-24T13:58:38;1.30;;;1.20;;
11171;SDS011;5642;50.830;12.082;2023-06-24T14:01:24;1.30;;;1.20;;
11171;SDS011;5642;50.830;12.082;2023-06-24T14:04:10;1.30;;;1.20;;
11171;SDS011;5642;50.830;12.082;2023-06-24T14:06:55;1.40;;;1.30;;
11171;SDS011;5642;50.830;12.082;2023-06-24T14:09:41;1.40;;;1.30;;
11171;SDS011;5642;50.830;12.082;2023-06-24T14:12:27;1.20;;;1.10;;
11171;SDS011;5642;50.830;12.082;2023-06-24T14:15:13;1.50;;;1.40;;
11171;SDS011;5642;50.830;12.082;2023-06-24T14:17:59;1.45;;;1.35;;
11171;SDS011;5642;50.830;12.082;2023-06-24T14:20:45;1.50;;;1.40;;
11171;SDS011;5642;50.830;12.082;2023-06-24T14:23:31;1.50;;;1.40;;
11171;SDS011;5642;50.830;12.082;2023-06-24T14:26:17;1.63;;;1.52;;
11171;SDS011;5642;50.830;12.082;2023-06-24T14:29:03;1.40;;;1.30;;
11171;SDS011;5642;50.830;12.082;2023-06-24T14:31:50;1.38;;;1.27;;
11171;SDS011;5642;50.830;12.082;2023-06-24T14:34:36;1.45;;;1.38;;
11171;SDS011;5642;50.830;12.082;2023-06-24T14:37:21;1.52;;;1.42;;
11171;SDS011;5642;50.830;12.082;2023-06-24T14:40:07;1.20;;;1.20;;
11171;SDS011;5642;50.830;12.082;2023-06-24T14:42:53;1.50;;;1.40;;
11171;SDS011;5642;50.830;12.082;2023-06-24T14:45:39;1.45;;;1.35;;
11171;SDS011;5642;50.830;12.082;2023-06-24T14:48:25;1.35;;;1.25;;
11171;SDS011;5642;50.830;12.082;2023-06-24T14:51:11;1.33;;;1.23;;
11171;SDS011;5642;50.830;12.082;2023-06-24T14:53:57;1.48;;;1.38;;
11171;SDS011;5642;50.830;12.082;2023-06-24T14:56:43;1.48;;;1.38;;
11171;SDS011;5642;50.830;12.082;2023-06-24T14:59:28;1.40;;;1.30;;
11171;SDS011;5642;50.830;12.082;2023-06-24T15:02:14;1.50;;;1.40;;
11171;SDS011;5642;50.830;12.082;2023-06-24T15:05:01;1.48;;;1.38;;
11171;SDS011;5642;50.830;12.082;2023-06-24T15:07:49;1.50;;;1.40;;
11171;SDS011;5642;50.830;12.082;2023-06-24T15:10:35;1.40;;;1.30;;
11171;SDS011;5642;50.830;12.082;2023-06-24T15:13:22;1.45;;;1.35;;
11171;SDS011;5642;50.830;12.082;2023-06-24T15:16:07;1.58;;;1.48;;
11171;SDS011;5642;50.830;12.082;2023-06-24T15:18:53;1.35;;;1.25;;
11171;SDS011;5642;50.830;12.082;2023-06-24T15:21:39;1.60;;;1.50;;
11171;SDS011;5642;50.830;12.082;2023-06-24T15:24:25;2.00;;;1.90;;
11171;SDS011;5642;50.830;12.082;2023-06-24T15:27:11;1.75;;;1.65;;
11171;SDS011;5642;50.830;12.082;2023-06-24T15:29:57;1.63;;;1.52;;
11171;SDS011;5642;50.830;12.082;2023-06-24T15:32:43;2.10;;;1.90;;
11171;SDS011;5642;50.830;12.082;2023-06-24T15:35:31;2.58;;;2.38;;
11171;SDS011;5642;50.830;12.082;2023-06-24T15:38:17;2.78;;;2.58;;
11171;SDS011;5642;50.830;12.082;2023-06-24T15:41:03;2.67;;;2.47;;
11171;SDS011;5642;50.830;12.082;2023-06-24T15:43:49;2.90;;;2.63;;
11171;SDS011;5642;50.830;12.082;2023-06-24T15:46:35;2.72;;;2.53;;
11171;SDS011;5642;50.830;12.082;2023-06-24T15:49:22;4.20;;;2.58;;
11171;SDS011;5642;50.830;12.082;2023-06-24T15:52:08;3.05;;;2.83;;
11171;SDS011;5642;50.830;12.082;2023-06-24T15:54:53;3.03;;;2.83;;
11171;SDS011;5642;50.830;12.082;2023-06-24T15:57:39;2.75;;;2.55;;
11171;SDS011;5642;50.830;12.082;2023-06-24T16:00:25;3.05;;;2.85;;
11171;SDS011;5642;50.830;12.082;2023-06-24T16:03:11;2.60;;;2.40;;
11171;SDS011;5642;50.830;12.082;2023-06-24T16:05:57;4.07;;;2.28;;
11171;SDS011;5642;50.830;12.082;2023-06-24T16:08:43;2.22;;;2.08;;
11171;SDS011;5642;50.830;12.082;2023-06-24T16:11:28;1.95;;;1.85;;
11171;SDS011;5642;50.830;12.082;2023-06-24T16:14:14;2.40;;;2.20;;
11171;SDS011;5642;50.830;12.082;2023-06-24T16:17:00;1.90;;;1.80;;
11171;SDS011;5642;50.830;12.082;2023-06-24T16:19:46;1.90;;;1.80;;
11171;SDS011;5642;50.830;12.082;2023-06-24T16:22:32;1.70;;;1.60;;
11171;SDS011;5642;50.830;12.082;2023-06-24T16:25:18;1.70;;;1.60;;
11171;SDS011;5642;50.830;12.082;2023-06-24T16:28:04;1.58;;;1.48;;
11171;SDS011;5642;50.830;12.082;2023-06-24T16:30:49;1.40;;;1.30;;
11171;SDS011;5642;50.830;12.082;2023-06-24T16:33:35;1.48;;;1.38;;
11171;SDS011;5642;50.830;12.082;2023-06-24T16:36:21;1.50;;;1.40;;
11171;SDS011;5642;50.830;12.082;2023-06-24T16:39:07;1.42;;;1.35;;
11171;SDS011;5642;50.830;12.082;2023-06-24T16:41:54;1.45;;;1.35;;
11171;SDS011;5642;50.830;12.082;2023-06-24T16:44:40;1.20;;;1.20;;
11171;SDS011;5642;50.830;12.082;2023-06-24T16:47:26;1.60;;;1.50;;
11171;SDS011;5642;50.830;12.082;2023-06-24T16:50:12;1.83;;;1.50;;
11171;SDS011;5642;50.830;12.082;2023-06-24T16:52:58;1.58;;;1.48;;
11171;SDS011;5642;50.830;12.082;2023-06-24T16:55:43;3.08;;;1.50;;
11171;SDS011;5642;50.830;12.082;2023-06-24T16:58:29;1.60;;;1.50;;
11171;SDS011;5642;50.830;12.082;2023-06-24T17:01:15;1.50;;;1.40;;
11171;SDS011;5642;50.830;12.082;2023-06-24T17:04:01;1.50;;;1.40;;